createdAt,value
2022-12-29T00:02:21.105Z,10.04
2022-12-29T00:04:47.722Z,10.06
2022-12-29T00:07:14.206Z,10.01
2022-12-29T00:09:40.745Z,10.07
2022-12-29T00:12:07.621Z,10.06
2022-12-29T00:14:52.732Z,10.08
2022-12-29T00:17:19.223Z,10.04
2022-12-29T00:20:04.407Z,10.02
2022-12-29T00:22:49.411Z,10.06
2022-12-29T00:25:35.200Z,10.00
2022-12-29T00:28:20.308Z,10.10
2022-12-29T00:31:05.554Z,10.05
2022-12-29T00:33:52.581Z,10.05
2022-12-29T00:36:29.064Z,10.04
2022-12-29T00:39:20.748Z,10.09
2022-12-29T00:42:07.865Z,10.15
2022-12-29T00:44:34.585Z,10.08
2022-12-29T00:47:05.525Z,10.03
2022-12-29T00:49:32.911Z,10.01
2022-12-29T00:52:04.172Z,10.03
2022-12-29T00:54:33.262Z,10.05
2022-12-29T00:57:01.053Z,10.06
2022-12-29T00:59:27.960Z,10.11
2022-12-29T01:01:55.412Z,10.08
2022-12-29T01:04:24.188Z,10.13
2022-12-29T01:06:51.017Z,10.10
2022-12-29T01:09:37.439Z,10.12
2022-12-29T01:12:05.629Z,10.06
2022-12-29T01:14:32.556Z,10.04
2022-12-29T01:16:59.109Z,10.02
2022-12-29T01:19:26.753Z,9.93
2022-12-29T01:21:53.634Z,9.95
2022-12-29T01:24:21.570Z,9.94
2022-12-29T01:26:48.716Z,9.94
2022-12-29T01:29:15.773Z,9.92
2022-12-29T01:31:42.349Z,9.91
2022-12-29T01:34:08.856Z,9.93
2022-12-29T01:36:35.377Z,9.94
2022-12-29T01:39:01.942Z,9.91
2022-12-29T01:41:28.751Z,9.91
2022-12-29T01:43:58.292Z,9.87
2022-12-29T01:46:32.998Z,9.87
2022-12-29T01:49:10.992Z,9.84
2022-12-29T01:51:46.743Z,9.82
2022-12-29T01:54:20.690Z,9.80
2022-12-29T01:56:48.413Z,9.80
2022-12-29T01:59:22.793Z,9.81
2022-12-29T02:01:50.258Z,9.84
2022-12-29T02:04:18.457Z,9.84
2022-12-29T02:06:52.781Z,9.89
2022-12-29T02:09:19.842Z,9.82
2022-12-29T02:11:47.278Z,9.88
2022-12-29T02:14:15.070Z,9.92
2022-12-29T02:17:03.255Z,9.85
2022-12-29T02:19:57.966Z,9.84
2022-12-29T02:22:57.301Z,9.75
2022-12-29T02:25:44.285Z,9.65
2022-12-29T02:28:39.800Z,9.66
2022-12-29T02:31:27.440Z,9.67
2022-12-29T02:34:10.354Z,9.56
2022-12-29T02:36:49.501Z,9.47
2022-12-29T02:39:24.793Z,9.45
2022-12-29T02:42:08.481Z,9.38
2022-12-29T02:44:54.031Z,9.38
2022-12-29T02:47:25.849Z,9.46
2022-12-29T02:50:32.583Z,9.52
2022-12-29T02:53:02.682Z,9.53
2022-12-29T02:55:29.410Z,9.59
2022-12-29T02:58:16.679Z,9.58
2022-12-29T03:01:09.681Z,9.59
2022-12-29T03:04:09.167Z,9.61
2022-12-29T03:06:53.176Z,9.60
2022-12-29T03:09:22.646Z,9.57
2022-12-29T03:12:09.800Z,9.57
2022-12-29T03:15:08.211Z,9.64
2022-12-29T03:17:46.343Z,9.60
2022-12-29T03:20:19.474Z,9.62
2022-12-29T03:22:50.682Z,9.61
2022-12-29T03:25:21.606Z,9.55
2022-12-29T03:27:58.422Z,9.53
2022-12-29T03:30:27.410Z,9.56
2022-12-29T03:32:59.039Z,9.55
2022-12-29T03:35:30.036Z,9.53
2022-12-29T03:38:03.577Z,9.54
2022-12-29T03:40:32.758Z,9.52
2022-12-29T03:42:59.657Z,9.61
2022-12-29T03:45:26.556Z,9.55
2022-12-29T03:47:54.398Z,9.50
2022-12-29T03:50:21.128Z,9.51
2022-12-29T03:52:47.662Z,9.53
2022-12-29T03:55:14.138Z,9.50
2022-12-29T03:57:41.082Z,9.52
2022-12-29T04:00:08.439Z,9.50
2022-12-29T04:02:35.141Z,9.48
2022-12-29T04:05:01.833Z,9.55
2022-12-29T04:07:28.481Z,9.61
2022-12-29T04:09:54.976Z,9.59
2022-12-29T04:12:21.564Z,9.64
2022-12-29T04:14:48.138Z,9.69
2022-12-29T04:17:14.690Z,9.68
2022-12-29T04:19:41.438Z,9.68
2022-12-29T04:22:07.984Z,9.63
2022-12-29T04:24:34.501Z,9.66
2022-12-29T04:27:01.070Z,9.75
2022-12-29T04:29:27.509Z,9.64
2022-12-29T04:31:54.037Z,9.61
2022-12-29T04:34:20.612Z,9.64
2022-12-29T04:36:47.215Z,9.64
2022-12-29T04:39:13.896Z,9.67
2022-12-29T04:41:40.759Z,9.60
2022-12-29T04:44:07.483Z,9.51
2022-12-29T04:46:34.164Z,9.61
2022-12-29T04:49:05.668Z,9.54
2022-12-29T04:51:32.380Z,9.49
2022-12-29T04:53:59.018Z,9.43
2022-12-29T04:56:25.642Z,9.39
2022-12-29T04:58:52.189Z,9.36
2022-12-29T05:01:18.787Z,9.37
2022-12-29T05:03:45.362Z,9.37
2022-12-29T05:06:12.135Z,9.39
2022-12-29T05:08:38.732Z,9.48
2022-12-29T05:11:06.358Z,9.42
2022-12-29T05:13:32.807Z,9.43
2022-12-29T05:16:02.345Z,9.34
2022-12-29T05:18:28.855Z,9.25
2022-12-29T05:20:55.420Z,9.18
2022-12-29T05:23:21.964Z,9.22
2022-12-29T05:25:48.533Z,9.19
2022-12-29T05:28:15.149Z,9.10
2022-12-29T05:30:41.865Z,9.03
2022-12-29T05:33:08.333Z,9.03
2022-12-29T05:35:34.964Z,9.01
2022-12-29T05:38:01.489Z,9.01
2022-12-29T05:40:28.002Z,9.05
2022-12-29T05:42:54.478Z,9.08
2022-12-29T05:45:20.973Z,9.07
2022-12-29T05:47:47.469Z,9.01
2022-12-29T05:50:14.043Z,9.01
2022-12-29T05:52:40.547Z,9.00
2022-12-29T05:55:07.908Z,9.00
2022-12-29T05:57:34.502Z,9.11
2022-12-29T06:00:01.073Z,9.06
2022-12-29T06:02:27.777Z,9.00
2022-12-29T06:04:54.333Z,9.07
2022-12-29T06:07:20.837Z,9.06
2022-12-29T06:09:47.421Z,9.00
2022-12-29T06:12:13.911Z,9.05
2022-12-29T06:14:40.716Z,9.09
2022-12-29T06:17:07.403Z,9.05
2022-12-29T06:19:33.906Z,9.12
2022-12-29T06:22:00.512Z,9.10
2022-12-29T06:24:27.089Z,9.11
2022-12-29T06:26:53.547Z,9.08
2022-12-29T06:29:21.505Z,9.14
2022-12-29T06:31:48.159Z,9.19
2022-12-29T06:34:14.871Z,9.21
2022-12-29T06:36:41.411Z,9.21
2022-12-29T06:39:07.886Z,9.19
2022-12-29T06:41:34.475Z,9.17
2022-12-29T06:44:00.938Z,9.13
2022-12-29T06:46:27.513Z,9.19
2022-12-29T06:48:54.138Z,9.20
2022-12-29T06:51:20.607Z,9.13
2022-12-29T06:53:47.016Z,9.08
2022-12-29T06:56:13.520Z,9.06
2022-12-29T06:58:40.000Z,9.09
2022-12-29T07:01:06.534Z,9.05
2022-12-29T07:03:33.481Z,9.06
2022-12-29T07:06:00.054Z,9.08
2022-12-29T07:08:26.490Z,9.03
2022-12-29T07:10:53.417Z,9.04
2022-12-29T07:13:20.136Z,9.03
2022-12-29T07:15:46.699Z,9.03
2022-12-29T07:18:13.249Z,9.05
2022-12-29T07:20:39.794Z,9.02
2022-12-29T07:23:06.344Z,9.10
2022-12-29T07:25:32.838Z,9.08
2022-12-29T07:27:59.296Z,9.23
2022-12-29T07:30:25.815Z,9.20
2022-12-29T07:32:52.290Z,9.22
2022-12-29T07:35:18.879Z,9.19
2022-12-29T07:37:45.393Z,9.19
2022-12-29T07:40:12.478Z,9.14
2022-12-29T07:42:38.962Z,9.06
2022-12-29T07:45:06.183Z,9.06
2022-12-29T07:47:33.098Z,9.08
2022-12-29T07:49:59.635Z,9.08
2022-12-29T07:52:26.170Z,8.98
2022-12-29T07:54:53.004Z,8.89
2022-12-29T07:57:19.744Z,9.00
2022-12-29T07:59:46.193Z,8.96
2022-12-29T08:02:13.212Z,9.00
2022-12-29T08:04:39.899Z,9.00
2022-12-29T08:07:06.517Z,9.02
2022-12-29T08:09:33.014Z,9.15
2022-12-29T08:11:59.497Z,9.17
2022-12-29T08:14:25.984Z,9.14
2022-12-29T08:16:52.453Z,9.18
2022-12-29T08:19:18.922Z,9.31
2022-12-29T08:21:45.415Z,9.31
2022-12-29T08:24:12.031Z,9.38
2022-12-29T08:26:39.122Z,9.36
2022-12-29T08:29:05.759Z,9.34
2022-12-29T08:31:32.306Z,9.33
2022-12-29T08:33:58.961Z,9.36
2022-12-29T08:36:25.502Z,9.39
2022-12-29T08:38:52.151Z,9.44
2022-12-29T08:41:18.663Z,9.43
2022-12-29T08:43:49.485Z,9.43
2022-12-29T08:46:16.117Z,9.37
2022-12-29T08:48:42.844Z,9.40
2022-12-29T08:51:10.182Z,9.35
2022-12-29T08:53:36.716Z,9.41
2022-12-29T08:56:05.736Z,9.41
2022-12-29T08:58:33.431Z,9.45
2022-12-29T09:01:00.457Z,9.37
2022-12-29T09:06:16.826Z,9.23
2022-12-29T09:08:43.631Z,9.16
2022-12-29T09:11:19.572Z,9.22
2022-12-29T09:13:47.214Z,9.23
2022-12-29T09:16:15.960Z,9.21
2022-12-29T09:18:43.229Z,9.24
2022-12-29T09:21:11.852Z,9.22
2022-12-29T09:23:39.203Z,9.25
2022-12-29T09:26:05.967Z,9.28
2022-12-29T09:28:32.444Z,9.28
2022-12-29T09:30:59.897Z,9.33
2022-12-29T09:33:26.957Z,9.29
2022-12-29T09:35:55.835Z,9.24
2022-12-29T09:38:22.928Z,9.21
2022-12-29T09:41:03.805Z,9.16
2022-12-29T09:44:01.339Z,9.03
2022-12-29T09:46:31.009Z,9.06
2022-12-29T09:49:22.144Z,8.97
2022-12-29T09:51:54.248Z,8.91
2022-12-29T09:54:27.290Z,8.81
2022-12-29T09:56:54.563Z,8.77
2022-12-29T10:15:20.346Z,8.64
2022-12-29T10:18:05.663Z,8.60
2022-12-29T10:20:56.535Z,8.62
2022-12-29T10:23:44.307Z,8.60
2022-12-29T10:26:17.017Z,8.61
2022-12-29T10:28:52.043Z,8.56
2022-12-29T10:31:24.407Z,8.55
2022-12-29T10:33:57.372Z,8.53
2022-12-29T10:36:38.888Z,8.47
2022-12-29T10:39:48.929Z,8.48
2022-12-29T10:42:38.328Z,8.47
2022-12-29T10:45:06.475Z,8.48
2022-12-29T10:47:39.485Z,8.53
2022-12-29T10:50:06.454Z,8.51
2022-12-29T10:52:34.873Z,8.54
2022-12-29T10:55:06.159Z,8.55
2022-12-29T10:57:45.332Z,8.74
2022-12-29T11:00:22.887Z,8.70
2022-12-29T11:03:03.550Z,8.67
2022-12-29T11:05:35.981Z,8.86
2022-12-29T11:08:05.822Z,8.90
2022-12-29T11:10:42.006Z,8.87
2022-12-29T11:13:17.062Z,8.82
2022-12-29T11:15:51.583Z,8.77
2022-12-29T11:18:26.874Z,8.79
2022-12-29T11:21:01.780Z,8.86
2022-12-29T11:23:39.360Z,8.78
2022-12-29T11:26:12.415Z,8.79
2022-12-29T11:28:40.342Z,8.88
2022-12-29T11:31:08.839Z,8.78
2022-12-29T11:33:40.470Z,8.76
2022-12-29T11:36:12.675Z,8.76
2022-12-29T11:38:56.428Z,8.94
2022-12-29T11:41:33.099Z,8.88
2022-12-29T11:44:04.644Z,8.99
2022-12-29T11:46:37.456Z,8.97
2022-12-29T11:49:05.397Z,8.96
2022-12-29T11:51:44.718Z,8.93
2022-12-29T11:54:26.900Z,8.95
2022-12-29T11:56:55.020Z,8.94
2022-12-29T11:59:37.705Z,8.96
2022-12-29T12:02:12.343Z,9.04
2022-12-29T12:04:39.693Z,9.19
2022-12-29T12:07:16.229Z,10.01
2022-12-29T12:10:04.883Z,9.71
2022-12-29T12:12:48.059Z,9.42
2022-12-29T12:15:43.389Z,9.29
2022-12-29T12:18:34.926Z,9.35
2022-12-29T12:21:14.292Z,9.57
2022-12-29T12:24:11.366Z,9.75
2022-12-29T12:26:56.792Z,9.93
2022-12-29T12:29:46.769Z,9.84
2022-12-29T12:32:38.852Z,10.60
2022-12-29T12:35:05.999Z,11.41
2022-12-29T12:37:49.903Z,10.94
2022-12-29T12:40:41.619Z,10.59
2022-12-29T12:43:38.167Z,10.10
2022-12-29T12:46:38.592Z,9.98
2022-12-29T12:49:26.310Z,9.97
2022-12-29T12:52:05.898Z,9.85
2022-12-29T12:54:41.533Z,9.70
2022-12-29T12:57:23.761Z,9.67
2022-12-29T12:59:50.382Z,9.66
2022-12-29T13:02:33.645Z,9.61
2022-12-29T13:05:26.612Z,9.54
2022-12-29T13:08:45.742Z,9.45
2022-12-29T13:11:21.127Z,9.40
2022-12-29T13:14:16.818Z,9.42
2022-12-29T13:17:05.931Z,9.43
2022-12-29T13:20:00.340Z,9.42
2022-12-29T13:22:41.414Z,9.37
2022-12-29T13:25:38.974Z,9.40
2022-12-29T13:28:19.914Z,9.48
2022-12-29T13:31:10.188Z,9.42
2022-12-29T13:33:39.747Z,9.36
2022-12-29T13:36:15.736Z,9.32
2022-12-29T13:38:49.914Z,9.33
2022-12-29T13:41:48.252Z,9.26
2022-12-29T13:44:21.364Z,9.24
2022-12-29T13:46:48.968Z,9.22
2022-12-29T13:49:20.691Z,9.09
2022-12-29T13:51:53.645Z,9.06
2022-12-29T13:54:46.412Z,9.11
2022-12-29T13:57:49.595Z,9.17
2022-12-29T14:00:31.307Z,9.12
2022-12-29T14:03:00.914Z,9.06
2022-12-29T14:05:30.450Z,9.02
2022-12-29T14:08:15.131Z,8.96
2022-12-29T14:10:50.312Z,8.97
2022-12-29T14:13:23.051Z,8.92
2022-12-29T14:15:55.418Z,8.92
2022-12-29T14:18:27.640Z,8.91
2022-12-29T14:21:08.831Z,8.94
2022-12-29T14:23:35.172Z,8.82
2022-12-29T14:26:13.433Z,8.79
2022-12-29T14:28:42.471Z,8.68
2022-12-29T14:31:17.770Z,8.57
2022-12-29T14:34:11.849Z,8.54
2022-12-29T14:36:40.787Z,8.60
2022-12-29T14:39:42.258Z,8.55
2022-12-29T14:42:11.570Z,8.50
2022-12-29T14:44:51.842Z,8.52
2022-12-29T14:47:31.628Z,8.44
2022-12-29T14:50:18.678Z,8.46
2022-12-29T14:52:48.235Z,8.42
2022-12-29T14:55:17.421Z,8.40
2022-12-29T14:57:54.379Z,8.44
2022-12-29T15:00:24.788Z,8.40
2022-12-29T15:03:01.116Z,8.40
2022-12-29T15:05:35.898Z,8.38
2022-12-29T15:08:04.522Z,8.36
2022-12-29T15:10:38.302Z,8.32
2022-12-29T15:13:14.321Z,8.26
2022-12-29T15:15:41.039Z,8.28
2022-12-29T15:18:40.302Z,8.24
2022-12-29T15:21:07.599Z,8.33
2022-12-29T15:23:36.020Z,8.32
2022-12-29T15:26:07.613Z,8.30
2022-12-29T15:28:43.211Z,8.30
2022-12-29T15:31:18.420Z,8.33
2022-12-29T15:33:48.472Z,8.34
2022-12-29T15:36:21.575Z,8.31
2022-12-29T15:38:50.804Z,8.31
2022-12-29T15:42:01.278Z,8.33
2022-12-29T15:44:45.262Z,8.30
2022-12-29T15:47:24.505Z,8.34
2022-12-29T15:49:56.378Z,8.35
2022-12-29T15:52:24.818Z,8.34
2022-12-29T15:54:53.464Z,8.34
2022-12-29T15:57:31.429Z,8.34
2022-12-29T15:59:57.878Z,8.32
2022-12-29T16:02:25.665Z,8.29
2022-12-29T16:05:16.635Z,8.30
2022-12-29T16:07:42.273Z,8.31
2022-12-29T16:10:43.516Z,8.29
2022-12-29T16:13:39.970Z,8.24
2022-12-29T16:16:22.021Z,8.23
2022-12-29T16:18:57.019Z,8.19
2022-12-29T16:21:28.817Z,8.25
2022-12-29T16:24:00.366Z,8.21
2022-12-29T16:26:30.374Z,8.19
2022-12-29T16:28:59.533Z,8.20
2022-12-29T16:31:37.390Z,8.16
2022-12-29T16:34:24.727Z,8.11
2022-12-29T16:36:58.542Z,8.14
2022-12-29T16:39:29.880Z,8.03
2022-12-29T16:41:56.521Z,8.02
2022-12-29T16:44:31.611Z,8.03
2022-12-29T16:47:26.919Z,7.98
2022-12-29T16:49:54.961Z,8.00
2022-12-29T16:52:32.832Z,7.99
2022-12-29T16:55:04.292Z,7.97
2022-12-29T16:57:37.439Z,8.00
2022-12-29T17:00:07.693Z,7.92
2022-12-29T17:02:36.103Z,7.95
2022-12-29T17:05:02.835Z,7.92
2022-12-29T17:07:29.828Z,7.95
2022-12-29T17:09:56.374Z,7.88
2022-12-29T17:12:29.174Z,7.86
2022-12-29T17:15:13.923Z,7.85
2022-12-29T17:17:45.164Z,7.80
2022-12-29T17:20:20.579Z,7.83
2022-12-29T17:22:51.533Z,7.79
2022-12-29T17:25:20.957Z,7.75
2022-12-29T17:27:56.201Z,7.79
2022-12-29T17:30:29.709Z,7.72
2022-12-29T17:33:04.385Z,7.76
2022-12-29T17:35:31.416Z,7.73
2022-12-29T17:37:57.939Z,7.71
2022-12-29T17:40:29.752Z,7.75
2022-12-29T17:42:57.981Z,7.75
2022-12-29T17:45:32.400Z,7.74
2022-12-29T17:48:02.932Z,7.69
2022-12-29T17:50:31.287Z,7.67
2022-12-29T17:53:01.681Z,7.65
2022-12-29T17:55:34.759Z,7.57
2022-12-29T17:58:31.740Z,7.55
2022-12-29T18:01:00.484Z,7.55
2022-12-29T18:03:32.741Z,7.58
2022-12-29T18:05:59.768Z,7.58
2022-12-29T18:08:28.615Z,7.60
2022-12-29T18:10:56.212Z,7.63
2022-12-29T18:13:33.556Z,7.64
2022-12-29T18:16:02.660Z,7.64
2022-12-29T18:18:29.177Z,7.61
2022-12-29T18:20:59.388Z,7.60
2022-12-29T18:23:29.308Z,7.61
2022-12-29T18:25:59.223Z,7.61
2022-12-29T18:28:26.347Z,7.62
2022-12-29T18:30:53.941Z,7.56
2022-12-29T18:33:25.022Z,7.56
2022-12-29T18:35:57.420Z,7.41
2022-12-29T18:38:25.347Z,7.39
2022-12-29T18:40:52.218Z,7.39
2022-12-29T18:43:21.892Z,7.34
2022-12-29T18:45:49.315Z,7.29
2022-12-29T18:48:17.954Z,7.35
2022-12-29T18:50:45.119Z,7.29
2022-12-29T18:53:20.644Z,7.32
2022-12-29T18:55:47.249Z,7.33
2022-12-29T18:58:13.758Z,7.30
2022-12-29T19:00:43.525Z,7.26
2022-12-29T19:03:15.154Z,7.28
2022-12-29T19:05:43.346Z,7.27
2022-12-29T19:08:11.119Z,7.25
2022-12-29T19:10:38.349Z,7.23
2022-12-29T19:13:06.013Z,7.22
2022-12-29T19:15:35.674Z,7.23
2022-12-29T19:20:53.735Z,7.25
2022-12-29T19:23:24.729Z,7.25
2022-12-29T19:25:52.457Z,7.26
2022-12-29T19:28:22.567Z,7.25
2022-12-29T19:30:52.644Z,7.30
2022-12-29T19:33:21.442Z,7.29
2022-12-29T19:35:48.898Z,7.29
2022-12-29T19:38:15.802Z,7.25
2022-12-29T19:40:44.837Z,7.24
2022-12-29T19:43:12.766Z,7.25
2022-12-29T19:45:40.897Z,7.25
2022-12-29T19:48:12.208Z,7.25
2022-12-29T19:50:38.723Z,7.22
2022-12-29T19:53:05.878Z,7.12
2022-12-29T19:55:33.221Z,7.11
2022-12-29T19:57:59.751Z,7.09
2022-12-29T20:00:26.447Z,7.13
2022-12-29T20:02:53.288Z,7.07
2022-12-29T20:05:20.075Z,7.05
2022-12-29T20:07:46.785Z,7.03
2022-12-29T20:10:13.355Z,7.07
2022-12-29T20:12:40.233Z,7.05
2022-12-29T20:15:07.837Z,7.02
2022-12-29T20:20:26.944Z,7.03
2022-12-29T20:22:54.153Z,7.03
2022-12-29T20:25:47.569Z,6.98
2022-12-29T20:28:15.911Z,6.94
2022-12-29T20:30:44.160Z,6.97
2022-12-29T20:33:10.695Z,7.04
2022-12-29T20:35:37.670Z,6.97
2022-12-29T20:38:05.104Z,6.98
2022-12-29T20:40:32.318Z,7.00
2022-12-29T20:42:58.925Z,7.02
2022-12-29T20:45:25.935Z,6.96
2022-12-29T20:47:52.742Z,6.89
2022-12-29T20:50:19.506Z,6.89
2022-12-29T20:52:47.116Z,6.86
2022-12-29T20:55:14.383Z,6.84
2022-12-29T21:00:30.601Z,6.80
2022-12-29T21:02:59.348Z,6.76
2022-12-29T21:05:27.088Z,6.77
2022-12-29T21:07:54.563Z,6.76
2022-12-29T21:10:21.947Z,6.71
2022-12-29T21:12:48.749Z,6.75
2022-12-29T21:15:18.659Z,6.76
2022-12-29T21:17:48.473Z,6.75
2022-12-29T21:20:30.333Z,6.69
2022-12-29T21:22:57.233Z,6.72
2022-12-29T21:25:24.066Z,6.66
2022-12-29T21:27:50.752Z,6.60
2022-12-29T21:30:17.980Z,6.56
2022-12-29T21:32:44.488Z,6.58
2022-12-29T21:35:11.013Z,6.60
2022-12-29T21:37:37.543Z,6.60
2022-12-29T21:40:04.776Z,6.55
2022-12-29T21:42:31.597Z,6.54
2022-12-29T21:45:20.390Z,6.55
2022-12-29T21:48:06.775Z,6.46
2022-12-29T21:50:33.517Z,6.47
2022-12-29T21:53:00.559Z,6.53
2022-12-29T21:55:27.049Z,6.41
2022-12-29T21:58:12.306Z,6.41
2022-12-29T22:00:57.522Z,6.42
2022-12-29T22:03:42.420Z,6.43
2022-12-29T22:06:30.482Z,6.45
2022-12-29T22:09:15.598Z,6.38
2022-12-29T22:12:00.741Z,6.43
2022-12-29T22:14:27.320Z,6.35
2022-12-29T22:16:53.887Z,6.36
2022-12-29T22:19:20.357Z,6.33
2022-12-29T22:21:46.880Z,6.35
2022-12-29T22:24:13.652Z,6.36
2022-12-29T22:26:40.114Z,6.40
2022-12-29T22:29:06.703Z,6.30
2022-12-29T22:31:33.866Z,6.32
2022-12-29T22:34:02.541Z,6.34
2022-12-29T22:36:30.376Z,6.36
2022-12-29T22:38:57.075Z,6.37
2022-12-29T22:41:23.988Z,6.36
2022-12-29T22:43:50.502Z,6.43
2022-12-29T22:46:17.009Z,6.39
2022-12-29T22:48:43.669Z,6.47
2022-12-29T22:51:10.058Z,6.51
2022-12-29T22:53:39.451Z,6.53
2022-12-29T22:56:08.781Z,6.44
2022-12-29T22:58:35.677Z,6.46
2022-12-29T23:01:02.737Z,6.43
2022-12-29T23:03:29.449Z,6.40
2022-12-29T23:05:58.270Z,6.37
2022-12-29T23:08:25.220Z,6.35
2022-12-29T23:10:52.507Z,6.42
2022-12-29T23:13:19.071Z,6.41
2022-12-29T23:15:46.729Z,6.41
2022-12-29T23:18:13.235Z,6.35
2022-12-29T23:20:40.295Z,6.31
2022-12-29T23:23:06.749Z,6.29
2022-12-29T23:25:36.431Z,6.22
2022-12-29T23:28:03.788Z,6.31
2022-12-29T23:30:30.378Z,6.25
2022-12-29T23:32:56.884Z,6.19
2022-12-29T23:35:23.330Z,6.21
2022-12-29T23:37:49.932Z,6.27
2022-12-29T23:40:16.415Z,6.25
2022-12-29T23:42:42.809Z,6.18
2022-12-29T23:45:10.235Z,6.23
2022-12-29T23:47:36.660Z,6.14
2022-12-29T23:50:03.351Z,6.12
2022-12-29T23:52:29.801Z,6.06
2022-12-29T23:54:56.196Z,6.10
2022-12-29T23:57:22.660Z,6.10
2022-12-29T23:59:49.194Z,6.07
